sensor_id;sensor_type;location;lat;lon;timestamp;P1;durP1;ratioP1;P2;durP2;ratioP2
56752;SDS011;42627;42.646;23.642;2023-03-26T00:01:26;5.90;;;2.70;;
56752;SDS011;42627;42.646;23.642;2023-03-26T00:03:28;4.93;;;2.10;;
56752;SDS011;42627;42.646;23.642;2023-03-26T00:05:32;3.17;;;2.20;;
56752;SDS011;42627;42.646;23.642;2023-03-26T00:07:33;5.28;;;2.75;;
56752;SDS011;42627;42.646;23.642;2023-03-26T00:09:34;4.15;;;2.40;;
56752;SDS011;42627;42.646;23.642;2023-03-26T00:11:35;4.72;;;2.10;;
56752;SDS011;42627;42.646;23.642;2023-03-26T00:13:36;4.47;;;1.70;;
56752;SDS011;42627;42.646;23.642;2023-03-26T00:15:36;2.97;;;1.60;;
56752;SDS011;42627;42.646;23.642;2023-03-26T00:17:37;4.05;;;1.58;;
56752;SDS011;42627;42.646;23.642;2023-03-26T00:19:38;2.72;;;1.45;;
56752;SDS011;42627;42.646;23.642;2023-03-26T00:21:39;2.38;;;1.33;;
56752;SDS011;42627;42.646;23.642;2023-03-26T00:23:40;4.72;;;1.95;;
56752;SDS011;42627;42.646;23.642;2023-03-26T00:25:42;2.97;;;1.10;;
56752;SDS011;42627;42.646;23.642;2023-03-26T00:27:44;2.28;;;0.90;;
56752;SDS011;42627;42.646;23.642;2023-03-26T00:29:45;2.28;;;0.98;;
56752;SDS011;42627;42.646;23.642;2023-03-26T00:31:47;1.95;;;1.00;;
56752;SDS011;42627;42.646;23.642;2023-03-26T00:33:49;2.88;;;0.90;;
56752;SDS011;42627;42.646;23.642;2023-03-26T00:35:55;1.52;;;0.93;;
56752;SDS011;42627;42.646;23.642;2023-03-26T00:37:57;1.65;;;0.68;;
56752;SDS011;42627;42.646;23.642;2023-03-26T00:39:58;1.27;;;0.50;;
56752;SDS011;42627;42.646;23.642;2023-03-26T00:42:05;1.15;;;0.57;;
56752;SDS011;42627;42.646;23.642;2023-03-26T00:44:07;1.75;;;0.50;;
56752;SDS011;42627;42.646;23.642;2023-03-26T00:46:08;1.05;;;0.60;;
56752;SDS011;42627;42.646;23.642;2023-03-26T00:48:09;1.17;;;0.40;;
56752;SDS011;42627;42.646;23.642;2023-03-26T00:50:11;1.52;;;0.55;;
56752;SDS011;42627;42.646;23.642;2023-03-26T00:52:15;1.35;;;0.45;;
56752;SDS011;42627;42.646;23.642;2023-03-26T00:54:19;0.82;;;0.40;;
56752;SDS011;42627;42.646;23.642;2023-03-26T00:56:20;1.50;;;0.50;;
56752;SDS011;42627;42.646;23.642;2023-03-26T00:58:21;1.80;;;0.80;;
56752;SDS011;42627;42.646;23.642;2023-03-26T01:00:33;0.95;;;0.60;;
56752;SDS011;42627;42.646;23.642;2023-03-26T01:02:35;0.65;;;0.63;;
56752;SDS011;42627;42.646;23.642;2023-03-26T01:04:36;0.50;;;0.40;;
56752;SDS011;42627;42.646;23.642;2023-03-26T01:06:38;0.60;;;0.40;;
56752;SDS011;42627;42.646;23.642;2023-03-26T01:10:42;0.68;;;0.43;;
56752;SDS011;42627;42.646;23.642;2023-03-26T01:12:49;0.50;;;0.50;;
56752;SDS011;42627;42.646;23.642;2023-03-26T01:14:51;0.45;;;0.38;;
56752;SDS011;42627;42.646;23.642;2023-03-26T01:18:54;0.50;;;0.32;;
56752;SDS011;42627;42.646;23.642;2023-03-26T01:20:57;1.30;;;0.60;;
56752;SDS011;42627;42.646;23.642;2023-03-26T01:23:05;1.45;;;0.68;;
56752;SDS011;42627;42.646;23.642;2023-03-26T01:25:06;0.93;;;0.60;;
56752;SDS011;42627;42.646;23.642;2023-03-26T01:27:11;1.05;;;0.50;;
56752;SDS011;42627;42.646;23.642;2023-03-26T01:29:38;0.45;;;0.40;;
56752;SDS011;42627;42.646;23.642;2023-03-26T01:31:41;0.75;;;0.50;;
56752;SDS011;42627;42.646;23.642;2023-03-26T01:33:51;1.15;;;0.60;;
56752;SDS011;42627;42.646;23.642;2023-03-26T01:40:27;1.50;;;0.52;;
56752;SDS011;42627;42.646;23.642;2023-03-26T01:44:33;0.60;;;0.50;;
56752;SDS011;42627;42.646;23.642;2023-03-26T01:46:36;1.33;;;0.73;;
56752;SDS011;42627;42.646;23.642;2023-03-26T01:48:44;1.27;;;0.50;;
56752;SDS011;42627;42.646;23.642;2023-03-26T01:50:45;2.85;;;0.70;;
56752;SDS011;42627;42.646;23.642;2023-03-26T01:52:47;2.03;;;0.90;;
56752;SDS011;42627;42.646;23.642;2023-03-26T01:54:48;1.55;;;0.77;;
56752;SDS011;42627;42.646;23.642;2023-03-26T01:57:04;1.65;;;0.85;;
56752;SDS011;42627;42.646;23.642;2023-03-26T02:07:33;2.05;;;0.60;;
56752;SDS011;42627;42.646;23.642;2023-03-26T02:09:41;1.58;;;0.50;;
56752;SDS011;42627;42.646;23.642;2023-03-26T02:11:44;0.82;;;0.55;;
56752;SDS011;42627;42.646;23.642;2023-03-26T02:13:46;3.97;;;0.57;;
56752;SDS011;42627;42.646;23.642;2023-03-26T02:15:54;2.08;;;0.60;;
56752;SDS011;42627;42.646;23.642;2023-03-26T02:17:55;1.08;;;0.52;;
56752;SDS011;42627;42.646;23.642;2023-03-26T02:19:58;0.52;;;0.50;;
56752;SDS011;42627;42.646;23.642;2023-03-26T02:22:10;0.55;;;0.40;;
56752;SDS011;42627;42.646;23.642;2023-03-26T02:24:14;1.05;;;0.52;;
56752;SDS011;42627;42.646;23.642;2023-03-26T02:26:18;1.15;;;0.57;;
56752;SDS011;42627;42.646;23.642;2023-03-26T02:28:19;0.93;;;0.55;;
56752;SDS011;42627;42.646;23.642;2023-03-26T02:30:22;2.05;;;0.85;;
56752;SDS011;42627;42.646;23.642;2023-03-26T02:32:28;1.00;;;0.50;;
56752;SDS011;42627;42.646;23.642;2023-03-26T02:34:29;1.48;;;0.75;;
56752;SDS011;42627;42.646;23.642;2023-03-26T02:36:30;1.10;;;0.75;;
56752;SDS011;42627;42.646;23.642;2023-03-26T02:38:31;1.63;;;1.08;;
56752;SDS011;42627;42.646;23.642;2023-03-26T02:40:34;1.58;;;0.95;;
56752;SDS011;42627;42.646;23.642;2023-03-26T02:42:35;2.72;;;0.90;;
56752;SDS011;42627;42.646;23.642;2023-03-26T02:44:35;1.40;;;0.60;;
56752;SDS011;42627;42.646;23.642;2023-03-26T02:46:39;1.67;;;0.80;;
56752;SDS011;42627;42.646;23.642;2023-03-26T02:48:40;2.00;;;1.13;;
56752;SDS011;42627;42.646;23.642;2023-03-26T02:50:41;1.17;;;0.52;;
56752;SDS011;42627;42.646;23.642;2023-03-26T02:52:43;0.90;;;0.60;;
56752;SDS011;42627;42.646;23.642;2023-03-26T02:54:44;1.08;;;0.70;;
56752;SDS011;42627;42.646;23.642;2023-03-26T02:56:45;1.13;;;0.70;;
56752;SDS011;42627;42.646;23.642;2023-03-26T02:58:46;1.67;;;0.82;;
56752;SDS011;42627;42.646;23.642;2023-03-26T03:00:47;1.60;;;0.82;;
56752;SDS011;42627;42.646;23.642;2023-03-26T03:02:49;2.50;;;0.77;;
56752;SDS011;42627;42.646;23.642;2023-03-26T03:04:51;1.63;;;0.80;;
56752;SDS011;42627;42.646;23.642;2023-03-26T03:07:00;1.58;;;0.93;;
56752;SDS011;42627;42.646;23.642;2023-03-26T03:09:01;2.33;;;1.17;;
56752;SDS011;42627;42.646;23.642;2023-03-26T03:11:06;2.63;;;1.30;;
56752;SDS011;42627;42.646;23.642;2023-03-26T03:13:07;2.75;;;1.33;;
56752;SDS011;42627;42.646;23.642;2023-03-26T03:15:08;2.83;;;1.50;;
56752;SDS011;42627;42.646;23.642;2023-03-26T03:17:10;2.30;;;1.15;;
56752;SDS011;42627;42.646;23.642;2023-03-26T03:19:11;2.03;;;1.00;;
56752;SDS011;42627;42.646;23.642;2023-03-26T03:21:12;2.90;;;1.15;;
56752;SDS011;42627;42.646;23.642;2023-03-26T03:23:13;3.47;;;1.48;;
56752;SDS011;42627;42.646;23.642;2023-03-26T03:25:14;2.17;;;1.15;;
56752;SDS011;42627;42.646;23.642;2023-03-26T03:27:16;1.88;;;0.80;;
56752;SDS011;42627;42.646;23.642;2023-03-26T03:29:22;2.05;;;1.10;;
56752;SDS011;42627;42.646;23.642;2023-03-26T03:31:23;2.58;;;1.00;;
56752;SDS011;42627;42.646;23.642;2023-03-26T03:33:25;2.83;;;1.00;;
56752;SDS011;42627;42.646;23.642;2023-03-26T03:35:27;1.58;;;0.95;;
56752;SDS011;42627;42.646;23.642;2023-03-26T03:37:30;1.90;;;0.98;;
56752;SDS011;42627;42.646;23.642;2023-03-26T03:39:31;2.10;;;1.10;;
56752;SDS011;42627;42.646;23.642;2023-03-26T03:41:32;1.88;;;1.17;;
56752;SDS011;42627;42.646;23.642;2023-03-26T03:43:33;3.20;;;1.40;;
56752;SDS011;42627;42.646;23.642;2023-03-26T03:45:34;2.05;;;1.25;;
56752;SDS011;42627;42.646;23.642;2023-03-26T03:47:35;2.00;;;1.10;;
56752;SDS011;42627;42.646;23.642;2023-03-26T03:49:36;2.80;;;1.55;;
56752;SDS011;42627;42.646;23.642;2023-03-26T03:51:37;2.13;;;1.30;;
56752;SDS011;42627;42.646;23.642;2023-03-26T03:53:38;3.63;;;1.30;;
56752;SDS011;42627;42.646;23.642;2023-03-26T03:55:40;2.05;;;1.27;;
56752;SDS011;42627;42.646;23.642;2023-03-26T03:57:41;2.13;;;1.20;;
56752;SDS011;42627;42.646;23.642;2023-03-26T03:59:42;4.18;;;2.05;;
56752;SDS011;42627;42.646;23.642;2023-03-26T04:01:43;3.13;;;1.70;;
56752;SDS011;42627;42.646;23.642;2023-03-26T04:03:45;2.75;;;1.45;;
56752;SDS011;42627;42.646;23.642;2023-03-26T04:05:46;2.97;;;1.70;;
56752;SDS011;42627;42.646;23.642;2023-03-26T04:07:53;3.58;;;1.50;;
56752;SDS011;42627;42.646;23.642;2023-03-26T04:09:54;3.20;;;1.80;;
56752;SDS011;42627;42.646;23.642;2023-03-26T04:11:55;3.28;;;1.70;;
56752;SDS011;42627;42.646;23.642;2023-03-26T04:13:56;2.72;;;1.45;;
56752;SDS011;42627;42.646;23.642;2023-03-26T04:15:58;5.72;;;2.08;;
56752;SDS011;42627;42.646;23.642;2023-03-26T04:17:59;4.25;;;2.45;;
56752;SDS011;42627;42.646;23.642;2023-03-26T04:20:00;4.05;;;2.05;;
56752;SDS011;42627;42.646;23.642;2023-03-26T04:22:05;3.78;;;1.83;;
56752;SDS011;42627;42.646;23.642;2023-03-26T04:24:06;2.88;;;1.60;;
56752;SDS011;42627;42.646;23.642;2023-03-26T04:26:07;3.72;;;1.75;;
56752;SDS011;42627;42.646;23.642;2023-03-26T04:28:10;5.10;;;2.20;;
56752;SDS011;42627;42.646;23.642;2023-03-26T04:30:16;3.88;;;1.80;;
56752;SDS011;42627;42.646;23.642;2023-03-26T04:32:23;4.00;;;2.00;;
56752;SDS011;42627;42.646;23.642;2023-03-26T04:34:28;3.97;;;2.13;;
56752;SDS011;42627;42.646;23.642;2023-03-26T04:36:30;4.75;;;1.90;;
56752;SDS011;42627;42.646;23.642;2023-03-26T04:38:35;5.50;;;2.67;;
56752;SDS011;42627;42.646;23.642;2023-03-26T04:40:39;3.15;;;1.95;;
56752;SDS011;42627;42.646;23.642;2023-03-26T04:42:41;4.47;;;1.77;;
56752;SDS011;42627;42.646;23.642;2023-03-26T04:44:45;3.25;;;1.88;;
56752;SDS011;42627;42.646;23.642;2023-03-26T04:46:49;4.68;;;2.05;;
56752;SDS011;42627;42.646;23.642;2023-03-26T04:48:54;4.05;;;1.65;;
56752;SDS011;42627;42.646;23.642;2023-03-26T04:50:55;4.85;;;2.15;;
56752;SDS011;42627;42.646;23.642;2023-03-26T04:52:56;3.58;;;2.13;;
56752;SDS011;42627;42.646;23.642;2023-03-26T04:54:57;6.28;;;2.30;;
56752;SDS011;42627;42.646;23.642;2023-03-26T04:56:59;6.80;;;2.55;;
56752;SDS011;42627;42.646;23.642;2023-03-26T04:59:02;4.60;;;1.95;;
56752;SDS011;42627;42.646;23.642;2023-03-26T05:01:03;4.75;;;1.95;;
56752;SDS011;42627;42.646;23.642;2023-03-26T05:03:09;5.82;;;2.53;;
56752;SDS011;42627;42.646;23.642;2023-03-26T05:05:11;4.78;;;2.30;;
56752;SDS011;42627;42.646;23.642;2023-03-26T05:07:15;5.18;;;2.67;;
56752;SDS011;42627;42.646;23.642;2023-03-26T05:09:16;5.97;;;2.78;;
56752;SDS011;42627;42.646;23.642;2023-03-26T05:11:18;4.50;;;2.22;;
56752;SDS011;42627;42.646;23.642;2023-03-26T05:13:19;6.10;;;2.40;;
56752;SDS011;42627;42.646;23.642;2023-03-26T05:15:20;6.70;;;2.67;;
56752;SDS011;42627;42.646;23.642;2023-03-26T05:17:22;5.93;;;2.63;;
56752;SDS011;42627;42.646;23.642;2023-03-26T05:19:23;5.97;;;2.53;;
56752;SDS011;42627;42.646;23.642;2023-03-26T05:21:24;6.18;;;2.75;;
56752;SDS011;42627;42.646;23.642;2023-03-26T05:23:25;4.97;;;2.53;;
56752;SDS011;42627;42.646;23.642;2023-03-26T05:25:26;8.77;;;2.65;;
56752;SDS011;42627;42.646;23.642;2023-03-26T05:27:27;7.40;;;2.88;;
56752;SDS011;42627;42.646;23.642;2023-03-26T05:29:28;3.97;;;2.53;;
56752;SDS011;42627;42.646;23.642;2023-03-26T05:31:29;5.28;;;2.53;;
56752;SDS011;42627;42.646;23.642;2023-03-26T05:33:30;4.72;;;2.75;;
56752;SDS011;42627;42.646;23.642;2023-03-26T05:35:31;5.18;;;2.40;;
56752;SDS011;42627;42.646;23.642;2023-03-26T05:37:32;5.75;;;2.80;;
56752;SDS011;42627;42.646;23.642;2023-03-26T05:39:33;7.25;;;3.20;;
56752;SDS011;42627;42.646;23.642;2023-03-26T05:41:34;6.80;;;3.42;;
56752;SDS011;42627;42.646;23.642;2023-03-26T05:43:35;6.60;;;3.50;;
56752;SDS011;42627;42.646;23.642;2023-03-26T05:45:36;16.25;;;8.95;;
56752;SDS011;42627;42.646;23.642;2023-03-26T05:47:37;8.65;;;4.10;;
56752;SDS011;42627;42.646;23.642;2023-03-26T05:49:38;19.33;;;7.00;;
56752;SDS011;42627;42.646;23.642;2023-03-26T05:51:40;23.33;;;9.07;;
56752;SDS011;42627;42.646;23.642;2023-03-26T05:53:41;18.52;;;6.75;;
56752;SDS011;42627;42.646;23.642;2023-03-26T05:55:42;8.75;;;3.67;;
56752;SDS011;42627;42.646;23.642;2023-03-26T05:57:44;29.30;;;8.23;;
56752;SDS011;42627;42.646;23.642;2023-03-26T05:59:45;30.02;;;9.43;;
56752;SDS011;42627;42.646;23.642;2023-03-26T06:01:46;7.30;;;2.90;;
56752;SDS011;42627;42.646;23.642;2023-03-26T06:03:49;6.07;;;3.40;;
56752;SDS011;42627;42.646;23.642;2023-03-26T06:05:51;6.53;;;3.08;;
56752;SDS011;42627;42.646;23.642;2023-03-26T06:07:51;10.15;;;4.85;;
56752;SDS011;42627;42.646;23.642;2023-03-26T06:09:52;11.05;;;4.63;;
56752;SDS011;42627;42.646;23.642;2023-03-26T06:11:54;6.40;;;2.97;;
56752;SDS011;42627;42.646;23.642;2023-03-26T06:13:55;5.55;;;2.72;;
56752;SDS011;42627;42.646;23.642;2023-03-26T06:15:56;5.97;;;2.67;;
56752;SDS011;42627;42.646;23.642;2023-03-26T06:17:57;4.40;;;2.28;;
56752;SDS011;42627;42.646;23.642;2023-03-26T06:19:58;7.43;;;3.08;;
56752;SDS011;42627;42.646;23.642;2023-03-26T06:22:08;7.90;;;3.38;;
56752;SDS011;42627;42.646;23.642;2023-03-26T06:24:09;5.70;;;2.80;;
56752;SDS011;42627;42.646;23.642;2023-03-26T06:26:10;4.53;;;2.40;;
56752;SDS011;42627;42.646;23.642;2023-03-26T06:28:12;6.22;;;2.92;;
56752;SDS011;42627;42.646;23.642;2023-03-26T06:30:13;10.00;;;4.28;;
56752;SDS011;42627;42.646;23.642;2023-03-26T06:32:14;5.43;;;2.63;;
56752;SDS011;42627;42.646;23.642;2023-03-26T06:34:15;5.38;;;2.88;;
56752;SDS011;42627;42.646;23.642;2023-03-26T06:36:16;5.93;;;2.97;;
56752;SDS011;42627;42.646;23.642;2023-03-26T06:38:17;4.22;;;2.65;;
56752;SDS011;42627;42.646;23.642;2023-03-26T06:40:18;7.75;;;3.60;;
56752;SDS011;42627;42.646;23.642;2023-03-26T06:42:19;6.43;;;3.30;;
56752;SDS011;42627;42.646;23.642;2023-03-26T06:44:20;6.50;;;3.40;;
56752;SDS011;42627;42.646;23.642;2023-03-26T06:46:21;6.40;;;3.20;;
56752;SDS011;42627;42.646;23.642;2023-03-26T06:48:24;7.00;;;3.10;;
56752;SDS011;42627;42.646;23.642;2023-03-26T06:50:26;5.38;;;2.92;;
56752;SDS011;42627;42.646;23.642;2023-03-26T06:52:27;10.10;;;3.03;;
56752;SDS011;42627;42.646;23.642;2023-03-26T06:54:28;5.68;;;2.80;;
56752;SDS011;42627;42.646;23.642;2023-03-26T06:56:29;6.13;;;2.85;;
56752;SDS011;42627;42.646;23.642;2023-03-26T06:58:30;7.05;;;3.58;;
56752;SDS011;42627;42.646;23.642;2023-03-26T07:00:31;8.70;;;4.03;;
56752;SDS011;42627;42.646;23.642;2023-03-26T07:02:32;8.32;;;3.22;;
56752;SDS011;42627;42.646;23.642;2023-03-26T07:04:33;10.10;;;2.97;;
56752;SDS011;42627;42.646;23.642;2023-03-26T07:06:34;6.47;;;3.03;;
56752;SDS011;42627;42.646;23.642;2023-03-26T07:08:34;8.80;;;3.85;;
56752;SDS011;42627;42.646;23.642;2023-03-26T07:10:35;8.38;;;3.58;;
56752;SDS011;42627;42.646;23.642;2023-03-26T07:12:36;4.88;;;2.60;;
56752;SDS011;42627;42.646;23.642;2023-03-26T07:14:36;5.53;;;2.72;;
56752;SDS011;42627;42.646;23.642;2023-03-26T07:16:40;5.93;;;2.80;;
56752;SDS011;42627;42.646;23.642;2023-03-26T07:18:41;6.13;;;3.42;;
56752;SDS011;42627;42.646;23.642;2023-03-26T07:20:43;6.25;;;3.47;;
56752;SDS011;42627;42.646;23.642;2023-03-26T07:22:44;8.90;;;3.30;;
56752;SDS011;42627;42.646;23.642;2023-03-26T07:24:45;7.53;;;3.58;;
56752;SDS011;42627;42.646;23.642;2023-03-26T07:26:49;7.00;;;3.20;;
56752;SDS011;42627;42.646;23.642;2023-03-26T07:28:58;5.57;;;2.90;;
56752;SDS011;42627;42.646;23.642;2023-03-26T07:31:19;5.45;;;2.80;;
56752;SDS011;42627;42.646;23.642;2023-03-26T07:35:37;8.23;;;3.10;;
56752;SDS011;42627;42.646;23.642;2023-03-26T07:39:55;6.95;;;3.30;;
56752;SDS011;42627;42.646;23.642;2023-03-26T07:46:19;6.60;;;3.20;;
56752;SDS011;42627;42.646;23.642;2023-03-26T07:48:23;6.22;;;3.28;;
56752;SDS011;42627;42.646;23.642;2023-03-26T07:50:26;8.18;;;3.67;;
56752;SDS011;42627;42.646;23.642;2023-03-26T07:52:27;7.25;;;3.80;;
56752;SDS011;42627;42.646;23.642;2023-03-26T07:54:28;6.97;;;3.33;;
56752;SDS011;42627;42.646;23.642;2023-03-26T08:00:59;6.22;;;3.17;;
56752;SDS011;42627;42.646;23.642;2023-03-26T08:03:30;5.13;;;2.80;;
56752;SDS011;42627;42.646;23.642;2023-03-26T08:08:01;5.25;;;2.88;;
56752;SDS011;42627;42.646;23.642;2023-03-26T08:13:34;4.57;;;2.63;;
56752;SDS011;42627;42.646;23.642;2023-03-26T08:16:01;5.30;;;2.88;;
56752;SDS011;42627;42.646;23.642;2023-03-26T08:17:46;4.47;;;2.42;;
56752;SDS011;42627;42.646;23.642;2023-03-26T08:19:58;4.63;;;2.30;;
56752;SDS011;42627;42.646;23.642;2023-03-26T08:22:10;5.35;;;2.22;;
56752;SDS011;42627;42.646;23.642;2023-03-26T08:26:33;3.90;;;1.85;;
56752;SDS011;42627;42.646;23.642;2023-03-26T08:30:36;3.92;;;1.88;;
56752;SDS011;42627;42.646;23.642;2023-03-26T08:32:37;4.40;;;2.22;;
56752;SDS011;42627;42.646;23.642;2023-03-26T08:34:39;5.72;;;2.30;;
56752;SDS011;42627;42.646;23.642;2023-03-26T08:36:40;3.83;;;1.98;;
56752;SDS011;42627;42.646;23.642;2023-03-26T08:38:41;3.15;;;2.00;;
56752;SDS011;42627;42.646;23.642;2023-03-26T08:55:57;5.45;;;2.35;;
56752;SDS011;42627;42.646;23.642;2023-03-26T09:26:17;3.25;;;1.52;;
56752;SDS011;42627;42.646;23.642;2023-03-26T09:30:32;4.68;;;1.70;;
56752;SDS011;42627;42.646;23.642;2023-03-26T09:44:20;3.60;;;1.48;;
56752;SDS011;42627;42.646;23.642;2023-03-26T09:46:28;3.67;;;1.77;;
56752;SDS011;42627;42.646;23.642;2023-03-26T09:48:50;2.63;;;1.58;;
56752;SDS011;42627;42.646;23.642;2023-03-26T09:50:59;2.22;;;1.48;;
56752;SDS011;42627;42.646;23.642;2023-03-26T09:59:46;2.97;;;1.75;;
56752;SDS011;42627;42.646;23.642;2023-03-26T10:03:57;6.68;;;1.20;;
56752;SDS011;42627;42.646;23.642;2023-03-26T10:10:28;3.47;;;1.58;;
56752;SDS011;42627;42.646;23.642;2023-03-26T10:21:10;23.73;;;3.33;;
56752;SDS011;42627;42.646;23.642;2023-03-26T10:23:30;1.42;;;0.98;;
56752;SDS011;42627;42.646;23.642;2023-03-26T10:36:34;1.95;;;0.98;;
56752;SDS011;42627;42.646;23.642;2023-03-26T10:45:07;2.70;;;1.35;;
56752;SDS011;42627;42.646;23.642;2023-03-26T10:47:25;3.08;;;1.50;;
56752;SDS011;42627;42.646;23.642;2023-03-26T10:51:33;2.45;;;1.05;;
56752;SDS011;42627;42.646;23.642;2023-03-26T10:53:46;1.52;;;0.82;;
56752;SDS011;42627;42.646;23.642;2023-03-26T10:55:54;2.72;;;0.90;;
56752;SDS011;42627;42.646;23.642;2023-03-26T11:00:12;2.95;;;1.20;;
56752;SDS011;42627;42.646;23.642;2023-03-26T11:06:44;2.35;;;1.20;;
56752;SDS011;42627;42.646;23.642;2023-03-26T11:09:00;1.50;;;0.75;;
56752;SDS011;42627;42.646;23.642;2023-03-26T11:15:20;3.42;;;1.40;;
56752;SDS011;42627;42.646;23.642;2023-03-26T11:17:33;3.45;;;1.50;;
56752;SDS011;42627;42.646;23.642;2023-03-26T11:19:40;2.92;;;1.27;;
56752;SDS011;42627;42.646;23.642;2023-03-26T11:21:48;1.60;;;0.85;;
56752;SDS011;42627;42.646;23.642;2023-03-26T11:26:15;2.63;;;1.02;;
56752;SDS011;42627;42.646;23.642;2023-03-26T11:30:41;2.75;;;1.27;;
56752;SDS011;42627;42.646;23.642;2023-03-26T11:32:47;1.83;;;1.00;;
56752;SDS011;42627;42.646;23.642;2023-03-26T11:35:02;1.83;;;1.00;;
56752;SDS011;42627;42.646;23.642;2023-03-26T11:37:11;2.53;;;1.20;;
56752;SDS011;42627;42.646;23.642;2023-03-26T11:39:17;2.20;;;1.05;;
56752;SDS011;42627;42.646;23.642;2023-03-26T11:43:28;1.88;;;1.00;;
56752;SDS011;42627;42.646;23.642;2023-03-26T11:45:34;2.55;;;0.90;;
56752;SDS011;42627;42.646;23.642;2023-03-26T11:47:42;1.50;;;0.80;;
56752;SDS011;42627;42.646;23.642;2023-03-26T11:49:45;2.83;;;1.30;;
56752;SDS011;42627;42.646;23.642;2023-03-26T11:51:49;2.35;;;1.13;;
56752;SDS011;42627;42.646;23.642;2023-03-26T11:53:50;28.60;;;3.45;;
56752;SDS011;42627;42.646;23.642;2023-03-26T11:57:58;2.25;;;0.90;;
56752;SDS011;42627;42.646;23.642;2023-03-26T12:00:04;2.28;;;1.20;;
56752;SDS011;42627;42.646;23.642;2023-03-26T12:02:21;3.08;;;0.93;;
56752;SDS011;42627;42.646;23.642;2023-03-26T12:04:37;1.48;;;0.68;;
56752;SDS011;42627;42.646;23.642;2023-03-26T12:06:49;2.60;;;1.30;;
56752;SDS011;42627;42.646;23.642;2023-03-26T12:08:50;1.80;;;1.00;;
56752;SDS011;42627;42.646;23.642;2023-03-26T12:10:58;3.88;;;0.82;;
56752;SDS011;42627;42.646;23.642;2023-03-26T12:13:01;4.35;;;1.45;;
56752;SDS011;42627;42.646;23.642;2023-03-26T12:26:31;3.20;;;0.77;;
56752;SDS011;42627;42.646;23.642;2023-03-26T12:28:34;1.52;;;0.50;;
56752;SDS011;42627;42.646;23.642;2023-03-26T12:30:36;1.52;;;0.80;;
56752;SDS011;42627;42.646;23.642;2023-03-26T12:32:39;1.70;;;0.80;;
56752;SDS011;42627;42.646;23.642;2023-03-26T12:34:43;1.30;;;0.60;;
56752;SDS011;42627;42.646;23.642;2023-03-26T12:36:48;0.85;;;0.50;;
56752;SDS011;42627;42.646;23.642;2023-03-26T12:38:50;1.38;;;0.70;;
56752;SDS011;42627;42.646;23.642;2023-03-26T12:41:34;1.85;;;0.88;;
56752;SDS011;42627;42.646;23.642;2023-03-26T12:43:20;1.33;;;0.70;;
56752;SDS011;42627;42.646;23.642;2023-03-26T12:45:23;1.55;;;0.68;;
56752;SDS011;42627;42.646;23.642;2023-03-26T12:47:28;1.85;;;0.90;;
56752;SDS011;42627;42.646;23.642;2023-03-26T12:49:30;1.08;;;0.60;;
56752;SDS011;42627;42.646;23.642;2023-03-26T12:55:53;0.80;;;0.40;;
56752;SDS011;42627;42.646;23.642;2023-03-26T13:04:20;0.55;;;0.40;;
56752;SDS011;42627;42.646;23.642;2023-03-26T13:17:52;0.30;;;0.30;;
56752;SDS011;42627;42.646;23.642;2023-03-26T13:19:59;1.23;;;0.50;;
56752;SDS011;42627;42.646;23.642;2023-03-26T13:35:06;0.90;;;0.40;;
56752;SDS011;42627;42.646;23.642;2023-03-26T13:39:24;0.95;;;0.32;;
56752;SDS011;42627;42.646;23.642;2023-03-26T13:43:35;0.57;;;0.40;;
56752;SDS011;42627;42.646;23.642;2023-03-26T13:45:41;1.00;;;0.35;;
56752;SDS011;42627;42.646;23.642;2023-03-26T13:47:45;0.77;;;0.40;;
56752;SDS011;42627;42.646;23.642;2023-03-26T13:52:01;1.80;;;0.63;;
56752;SDS011;42627;42.646;23.642;2023-03-26T13:54:09;0.73;;;0.40;;
56752;SDS011;42627;42.646;23.642;2023-03-26T13:56:22;0.30;;;0.22;;
56752;SDS011;42627;42.646;23.642;2023-03-26T13:58:37;1.02;;;0.32;;
56752;SDS011;42627;42.646;23.642;2023-03-26T14:02:48;0.57;;;0.40;;
56752;SDS011;42627;42.646;23.642;2023-03-26T14:04:54;0.38;;;0.38;;
56752;SDS011;42627;42.646;23.642;2023-03-26T14:09:02;1.33;;;0.40;;
56752;SDS011;42627;42.646;23.642;2023-03-26T14:11:07;1.27;;;0.40;;
56752;SDS011;42627;42.646;23.642;2023-03-26T14:15:16;0.60;;;0.30;;
56752;SDS011;42627;42.646;23.642;2023-03-26T14:17:26;1.30;;;0.28;;
56752;SDS011;42627;42.646;23.642;2023-03-26T14:21:51;1.13;;;0.30;;
56752;SDS011;42627;42.646;23.642;2023-03-26T14:32:40;16.83;;;4.50;;
56752;SDS011;42627;42.646;23.642;2023-03-26T14:39:29;14.27;;;3.75;;
56752;SDS011;42627;42.646;23.642;2023-03-26T14:41:47;3.45;;;0.98;;
56752;SDS011;42627;42.646;23.642;2023-03-26T14:50:29;0.65;;;0.38;;
56752;SDS011;42627;42.646;23.642;2023-03-26T14:52:50;0.65;;;0.20;;
56752;SDS011;42627;42.646;23.642;2023-03-26T14:54:52;0.75;;;0.32;;
56752;SDS011;42627;42.646;23.642;2023-03-26T15:01:24;0.13;;;0.10;;
56752;SDS011;42627;42.646;23.642;2023-03-26T15:05:43;1.80;;;0.40;;
56752;SDS011;42627;42.646;23.642;2023-03-26T15:08:02;0.40;;;0.17;;
56752;SDS011;42627;42.646;23.642;2023-03-26T15:12:41;6.68;;;1.73;;
56752;SDS011;42627;42.646;23.642;2023-03-26T15:15:00;4.63;;;1.08;;
56752;SDS011;42627;42.646;23.642;2023-03-26T15:23:56;2.58;;;1.02;;
56752;SDS011;42627;42.646;23.642;2023-03-26T15:33:09;1.67;;;0.30;;
56752;SDS011;42627;42.646;23.642;2023-03-26T15:35:35;0.10;;;0.10;;
56752;SDS011;42627;42.646;23.642;2023-03-26T15:40:08;1.00;;;0.50;;
56752;SDS011;42627;42.646;23.642;2023-03-26T15:46:38;2.05;;;0.47;;
56752;SDS011;42627;42.646;23.642;2023-03-26T15:48:54;1.95;;;0.60;;
56752;SDS011;42627;42.646;23.642;2023-03-26T15:55:29;0.80;;;0.30;;
56752;SDS011;42627;42.646;23.642;2023-03-26T15:57:37;0.65;;;0.30;;
56752;SDS011;42627;42.646;23.642;2023-03-26T16:04:09;1.00;;;0.50;;
56752;SDS011;42627;42.646;23.642;2023-03-26T16:06:56;0.43;;;0.28;;
56752;SDS011;42627;42.646;23.642;2023-03-26T16:11:03;7.25;;;0.90;;
56752;SDS011;42627;42.646;23.642;2023-03-26T16:15:14;0.85;;;0.32;;
56752;SDS011;42627;42.646;23.642;2023-03-26T16:17:23;1.27;;;0.70;;
56752;SDS011;42627;42.646;23.642;2023-03-26T16:21:53;2.67;;;0.82;;
56752;SDS011;42627;42.646;23.642;2023-03-26T16:23:55;2.38;;;1.35;;
56752;SDS011;42627;42.646;23.642;2023-03-26T16:26:16;2.80;;;1.10;;
56752;SDS011;42627;42.646;23.642;2023-03-26T16:28:58;4.25;;;0.88;;
56752;SDS011;42627;42.646;23.642;2023-03-26T16:30:57;2.55;;;0.82;;
56752;SDS011;42627;42.646;23.642;2023-03-26T16:33:07;4.18;;;1.55;;
56752;SDS011;42627;42.646;23.642;2023-03-26T16:39:39;24.50;;;7.68;;
56752;SDS011;42627;42.646;23.642;2023-03-26T16:43:48;72.85;;;19.88;;
56752;SDS011;42627;42.646;23.642;2023-03-26T16:45:57;90.80;;;23.80;;
56752;SDS011;42627;42.646;23.642;2023-03-26T16:50:47;182.00;;;42.97;;
56752;SDS011;42627;42.646;23.642;2023-03-26T17:02:30;22.58;;;6.63;;
56752;SDS011;42627;42.646;23.642;2023-03-26T17:04:53;30.98;;;9.88;;
56752;SDS011;42627;42.646;23.642;2023-03-26T17:21:35;7.22;;;3.10;;
56752;SDS011;42627;42.646;23.642;2023-03-26T17:30:46;10.05;;;4.40;;
56752;SDS011;42627;42.646;23.642;2023-03-26T17:32:56;10.50;;;4.13;;
56752;SDS011;42627;42.646;23.642;2023-03-26T17:35:33;10.85;;;3.78;;
56752;SDS011;42627;42.646;23.642;2023-03-26T17:44:54;23.23;;;10.18;;
56752;SDS011;42627;42.646;23.642;2023-03-26T17:47:12;33.20;;;11.05;;
56752;SDS011;42627;42.646;23.642;2023-03-26T17:49:20;37.90;;;11.57;;
56752;SDS011;42627;42.646;23.642;2023-03-26T17:59:43;17.77;;;8.40;;
56752;SDS011;42627;42.646;23.642;2023-03-26T18:02:34;23.13;;;9.45;;
56752;SDS011;42627;42.646;23.642;2023-03-26T18:16:58;17.33;;;7.32;;